sensor_id;sensor_type;location;lat;lon;timestamp;P1;durP1;ratioP1;P2;durP2;ratioP2
19251;SDS011;9760;50.944;5.304;2022-07-09T00:01:38;5.83;;;2.60;;
19251;SDS011;9760;50.944;5.304;2022-07-09T00:04:04;7.07;;;2.90;;
19251;SDS011;9760;50.944;5.304;2022-07-09T00:06:30;5.07;;;2.53;;
19251;SDS011;9760;50.944;5.304;2022-07-09T00:08:56;3.83;;;2.67;;
19251;SDS011;9760;50.944;5.304;2022-07-09T00:11:23;6.43;;;2.60;;
19251;SDS011;9760;50.944;5.304;2022-07-09T00:13:48;9.20;;;2.43;;
19251;SDS011;9760;50.944;5.304;2022-07-09T00:16:14;4.27;;;2.53;;
19251;SDS011;9760;50.944;5.304;2022-07-09T00:18:40;4.50;;;2.83;;
19251;SDS011;9760;50.944;5.304;2022-07-09T00:21:05;7.27;;;2.80;;
19251;SDS011;9760;50.944;5.304;2022-07-09T00:23:31;8.20;;;2.80;;
19251;SDS011;9760;50.944;5.304;2022-07-09T00:25:57;7.40;;;2.40;;
19251;SDS011;9760;50.944;5.304;2022-07-09T00:28:22;6.30;;;2.60;;
19251;SDS011;9760;50.944;5.304;2022-07-09T00:30:48;8.23;;;2.60;;
19251;SDS011;9760;50.944;5.304;2022-07-09T00:33:14;7.47;;;2.70;;
19251;SDS011;9760;50.944;5.304;2022-07-09T00:35:39;4.47;;;2.57;;
19251;SDS011;9760;50.944;5.304;2022-07-09T00:38:05;5.00;;;2.57;;
19251;SDS011;9760;50.944;5.304;2022-07-09T00:40:31;8.17;;;2.30;;
19251;SDS011;9760;50.944;5.304;2022-07-09T00:42:56;3.83;;;2.17;;
19251;SDS011;9760;50.944;5.304;2022-07-09T00:45:22;5.33;;;2.40;;
19251;SDS011;9760;50.944;5.304;2022-07-09T00:47:48;6.67;;;2.90;;
19251;SDS011;9760;50.944;5.304;2022-07-09T00:50:13;3.20;;;2.33;;
19251;SDS011;9760;50.944;5.304;2022-07-09T00:52:39;7.67;;;2.70;;
19251;SDS011;9760;50.944;5.304;2022-07-09T00:55:07;4.27;;;2.67;;
19251;SDS011;9760;50.944;5.304;2022-07-09T00:57:33;8.17;;;2.80;;
19251;SDS011;9760;50.944;5.304;2022-07-09T00:59:59;5.27;;;2.47;;
19251;SDS011;9760;50.944;5.304;2022-07-09T01:02:25;4.10;;;2.20;;
19251;SDS011;9760;50.944;5.304;2022-07-09T01:04:51;6.27;;;2.50;;
19251;SDS011;9760;50.944;5.304;2022-07-09T01:07:17;5.67;;;2.63;;
19251;SDS011;9760;50.944;5.304;2022-07-09T01:09:42;9.03;;;2.43;;
19251;SDS011;9760;50.944;5.304;2022-07-09T01:12:08;7.50;;;3.27;;
19251;SDS011;9760;50.944;5.304;2022-07-09T01:14:34;7.27;;;2.63;;
19251;SDS011;9760;50.944;5.304;2022-07-09T01:17:01;3.47;;;2.20;;
19251;SDS011;9760;50.944;5.304;2022-07-09T01:19:28;5.03;;;2.30;;
19251;SDS011;9760;50.944;5.304;2022-07-09T01:21:54;8.10;;;2.87;;
19251;SDS011;9760;50.944;5.304;2022-07-09T01:24:20;6.30;;;2.60;;
19251;SDS011;9760;50.944;5.304;2022-07-09T01:26:46;3.60;;;2.37;;
19251;SDS011;9760;50.944;5.304;2022-07-09T01:29:12;4.27;;;2.47;;
19251;SDS011;9760;50.944;5.304;2022-07-09T01:31:38;7.57;;;2.50;;
19251;SDS011;9760;50.944;5.304;2022-07-09T01:34:04;5.57;;;2.57;;
19251;SDS011;9760;50.944;5.304;2022-07-09T01:36:29;5.07;;;2.50;;
19251;SDS011;9760;50.944;5.304;2022-07-09T01:38:55;5.63;;;2.43;;
19251;SDS011;9760;50.944;5.304;2022-07-09T01:41:21;4.90;;;2.90;;
19251;SDS011;9760;50.944;5.304;2022-07-09T01:43:46;4.40;;;2.30;;
19251;SDS011;9760;50.944;5.304;2022-07-09T01:46:12;6.47;;;2.67;;
19251;SDS011;9760;50.944;5.304;2022-07-09T01:48:37;6.30;;;2.97;;
19251;SDS011;9760;50.944;5.304;2022-07-09T01:51:07;5.67;;;2.77;;
19251;SDS011;9760;50.944;5.304;2022-07-09T01:53:36;6.13;;;2.70;;
19251;SDS011;9760;50.944;5.304;2022-07-09T01:56:06;5.00;;;2.50;;
19251;SDS011;9760;50.944;5.304;2022-07-09T01:58:32;7.57;;;2.97;;
19251;SDS011;9760;50.944;5.304;2022-07-09T02:00:58;6.70;;;2.90;;
19251;SDS011;9760;50.944;5.304;2022-07-09T02:03:24;6.57;;;3.47;;
19251;SDS011;9760;50.944;5.304;2022-07-09T02:05:49;6.73;;;3.33;;
19251;SDS011;9760;50.944;5.304;2022-07-09T02:08:15;5.53;;;3.10;;
19251;SDS011;9760;50.944;5.304;2022-07-09T02:10:41;6.83;;;3.27;;
19251;SDS011;9760;50.944;5.304;2022-07-09T02:13:07;6.43;;;3.27;;
19251;SDS011;9760;50.944;5.304;2022-07-09T02:15:32;7.67;;;3.50;;
19251;SDS011;9760;50.944;5.304;2022-07-09T02:17:58;9.90;;;3.20;;
19251;SDS011;9760;50.944;5.304;2022-07-09T02:20:24;6.37;;;2.80;;
19251;SDS011;9760;50.944;5.304;2022-07-09T02:22:50;7.63;;;3.20;;
19251;SDS011;9760;50.944;5.304;2022-07-09T02:25:16;5.53;;;2.93;;
19251;SDS011;9760;50.944;5.304;2022-07-09T02:27:42;4.73;;;2.90;;
19251;SDS011;9760;50.944;5.304;2022-07-09T02:30:07;9.43;;;3.20;;
19251;SDS011;9760;50.944;5.304;2022-07-09T02:32:33;4.90;;;3.07;;
19251;SDS011;9760;50.944;5.304;2022-07-09T02:35:01;5.10;;;3.00;;
19251;SDS011;9760;50.944;5.304;2022-07-09T02:37:27;4.90;;;3.10;;
19251;SDS011;9760;50.944;5.304;2022-07-09T02:39:53;7.37;;;3.07;;
19251;SDS011;9760;50.944;5.304;2022-07-09T02:42:18;8.67;;;3.20;;
19251;SDS011;9760;50.944;5.304;2022-07-09T02:44:44;6.87;;;3.07;;
19251;SDS011;9760;50.944;5.304;2022-07-09T02:47:09;6.77;;;3.27;;
19251;SDS011;9760;50.944;5.304;2022-07-09T02:49:35;6.87;;;3.50;;
19251;SDS011;9760;50.944;5.304;2022-07-09T02:52:01;7.37;;;3.67;;
19251;SDS011;9760;50.944;5.304;2022-07-09T02:54:27;6.07;;;2.90;;
19251;SDS011;9760;50.944;5.304;2022-07-09T02:56:53;7.60;;;3.57;;
19251;SDS011;9760;50.944;5.304;2022-07-09T02:59:19;6.57;;;3.73;;
19251;SDS011;9760;50.944;5.304;2022-07-09T03:01:45;7.77;;;3.70;;
19251;SDS011;9760;50.944;5.304;2022-07-09T03:04:12;10.40;;;3.13;;
19251;SDS011;9760;50.944;5.304;2022-07-09T03:06:38;11.47;;;3.83;;
19251;SDS011;9760;50.944;5.304;2022-07-09T03:09:04;5.93;;;3.87;;
19251;SDS011;9760;50.944;5.304;2022-07-09T03:11:29;9.03;;;4.40;;
19251;SDS011;9760;50.944;5.304;2022-07-09T03:13:55;9.17;;;3.70;;
19251;SDS011;9760;50.944;5.304;2022-07-09T03:16:21;10.13;;;3.60;;
19251;SDS011;9760;50.944;5.304;2022-07-09T03:18:46;14.37;;;4.37;;
19251;SDS011;9760;50.944;5.304;2022-07-09T03:21:12;9.47;;;4.00;;
19251;SDS011;9760;50.944;5.304;2022-07-09T03:23:38;8.97;;;3.70;;
19251;SDS011;9760;50.944;5.304;2022-07-09T03:26:06;17.93;;;7.57;;
19251;SDS011;9760;50.944;5.304;2022-07-09T03:28:32;6.13;;;4.00;;
19251;SDS011;9760;50.944;5.304;2022-07-09T03:30:58;7.90;;;3.83;;
19251;SDS011;9760;50.944;5.304;2022-07-09T03:33:24;10.30;;;3.63;;
19251;SDS011;9760;50.944;5.304;2022-07-09T03:35:49;10.53;;;3.97;;
19251;SDS011;9760;50.944;5.304;2022-07-09T03:38:15;7.67;;;4.50;;
19251;SDS011;9760;50.944;5.304;2022-07-09T03:40:41;10.47;;;3.90;;
19251;SDS011;9760;50.944;5.304;2022-07-09T03:43:06;7.27;;;3.77;;
19251;SDS011;9760;50.944;5.304;2022-07-09T03:45:32;11.73;;;4.40;;
19251;SDS011;9760;50.944;5.304;2022-07-09T03:47:58;7.87;;;4.00;;
19251;SDS011;9760;50.944;5.304;2022-07-09T03:50:23;8.47;;;4.10;;
19251;SDS011;9760;50.944;5.304;2022-07-09T03:52:49;8.80;;;4.70;;
19251;SDS011;9760;50.944;5.304;2022-07-09T03:55:15;7.83;;;4.37;;
19251;SDS011;9760;50.944;5.304;2022-07-09T03:57:41;8.97;;;4.30;;
19251;SDS011;9760;50.944;5.304;2022-07-09T04:00:07;10.87;;;4.10;;
19251;SDS011;9760;50.944;5.304;2022-07-09T04:02:33;6.53;;;3.80;;
19251;SDS011;9760;50.944;5.304;2022-07-09T04:04:58;10.83;;;5.20;;
19251;SDS011;9760;50.944;5.304;2022-07-09T04:07:24;10.97;;;4.77;;
19251;SDS011;9760;50.944;5.304;2022-07-09T04:09:52;8.53;;;4.30;;
19251;SDS011;9760;50.944;5.304;2022-07-09T04:12:19;10.63;;;4.73;;
19251;SDS011;9760;50.944;5.304;2022-07-09T04:14:45;7.40;;;4.50;;
19251;SDS011;9760;50.944;5.304;2022-07-09T04:17:10;8.77;;;4.97;;
19251;SDS011;9760;50.944;5.304;2022-07-09T04:19:36;8.90;;;5.57;;
19251;SDS011;9760;50.944;5.304;2022-07-09T04:22:02;9.97;;;5.20;;
19251;SDS011;9760;50.944;5.304;2022-07-09T04:24:28;7.37;;;5.17;;
19251;SDS011;9760;50.944;5.304;2022-07-09T04:26:54;10.10;;;5.33;;
19251;SDS011;9760;50.944;5.304;2022-07-09T04:29:20;9.47;;;5.17;;
19251;SDS011;9760;50.944;5.304;2022-07-09T04:31:46;10.77;;;5.63;;
19251;SDS011;9760;50.944;5.304;2022-07-09T04:34:11;9.40;;;5.50;;
19251;SDS011;9760;50.944;5.304;2022-07-09T04:36:37;10.60;;;5.27;;
19251;SDS011;9760;50.944;5.304;2022-07-09T04:39:03;11.93;;;5.50;;
19251;SDS011;9760;50.944;5.304;2022-07-09T04:41:29;13.07;;;6.20;;
19251;SDS011;9760;50.944;5.304;2022-07-09T04:43:54;8.87;;;5.50;;
19251;SDS011;9760;50.944;5.304;2022-07-09T04:46:20;7.10;;;4.97;;
19251;SDS011;9760;50.944;5.304;2022-07-09T04:48:47;10.20;;;6.20;;
19251;SDS011;9760;50.944;5.304;2022-07-09T04:51:13;15.43;;;6.17;;
19251;SDS011;9760;50.944;5.304;2022-07-09T04:53:40;9.70;;;5.97;;
19251;SDS011;9760;50.944;5.304;2022-07-09T04:56:05;10.63;;;6.07;;
19251;SDS011;9760;50.944;5.304;2022-07-09T04:58:34;12.27;;;6.20;;
19251;SDS011;9760;50.944;5.304;2022-07-09T05:01:02;14.07;;;6.57;;
19251;SDS011;9760;50.944;5.304;2022-07-09T05:03:28;11.30;;;6.60;;
19251;SDS011;9760;50.944;5.304;2022-07-09T05:05:53;15.17;;;7.03;;
19251;SDS011;9760;50.944;5.304;2022-07-09T05:08:19;15.80;;;6.77;;
19251;SDS011;9760;50.944;5.304;2022-07-09T05:10:45;18.23;;;7.17;;
19251;SDS011;9760;50.944;5.304;2022-07-09T05:13:11;18.47;;;7.43;;
19251;SDS011;9760;50.944;5.304;2022-07-09T05:15:37;12.80;;;8.00;;
19251;SDS011;9760;50.944;5.304;2022-07-09T05:18:02;12.63;;;6.97;;
19251;SDS011;9760;50.944;5.304;2022-07-09T05:20:28;10.73;;;6.80;;
19251;SDS011;9760;50.944;5.304;2022-07-09T05:22:54;17.00;;;9.03;;
19251;SDS011;9760;50.944;5.304;2022-07-09T05:25:20;15.57;;;7.83;;
19251;SDS011;9760;50.944;5.304;2022-07-09T05:27:46;16.97;;;8.17;;
19251;SDS011;9760;50.944;5.304;2022-07-09T05:30:12;14.50;;;7.73;;
19251;SDS011;9760;50.944;5.304;2022-07-09T05:32:40;18.03;;;8.80;;
19251;SDS011;9760;50.944;5.304;2022-07-09T05:35:06;19.73;;;9.07;;
19251;SDS011;9760;50.944;5.304;2022-07-09T05:37:32;18.67;;;9.33;;
19251;SDS011;9760;50.944;5.304;2022-07-09T05:39:58;18.77;;;9.03;;
19251;SDS011;9760;50.944;5.304;2022-07-09T05:42:25;19.43;;;8.80;;
19251;SDS011;9760;50.944;5.304;2022-07-09T05:44:51;15.33;;;8.73;;
19251;SDS011;9760;50.944;5.304;2022-07-09T05:47:18;16.20;;;8.50;;
19251;SDS011;9760;50.944;5.304;2022-07-09T05:49:43;17.60;;;9.33;;
19251;SDS011;9760;50.944;5.304;2022-07-09T05:52:09;14.30;;;9.00;;
19251;SDS011;9760;50.944;5.304;2022-07-09T05:54:34;14.47;;;9.63;;
19251;SDS011;9760;50.944;5.304;2022-07-09T05:57:01;17.30;;;9.97;;
19251;SDS011;9760;50.944;5.304;2022-07-09T05:59:28;20.23;;;10.57;;
19251;SDS011;9760;50.944;5.304;2022-07-09T06:01:54;19.83;;;11.50;;
19251;SDS011;9760;50.944;5.304;2022-07-09T06:04:19;22.30;;;10.03;;
19251;SDS011;9760;50.944;5.304;2022-07-09T06:06:45;24.20;;;12.13;;
19251;SDS011;9760;50.944;5.304;2022-07-09T06:09:11;24.47;;;12.30;;
19251;SDS011;9760;50.944;5.304;2022-07-09T06:11:36;19.20;;;11.03;;
19251;SDS011;9760;50.944;5.304;2022-07-09T06:14:02;23.60;;;12.07;;
19251;SDS011;9760;50.944;5.304;2022-07-09T06:16:28;26.87;;;12.90;;
19251;SDS011;9760;50.944;5.304;2022-07-09T06:18:53;17.93;;;10.40;;
19251;SDS011;9760;50.944;5.304;2022-07-09T06:21:19;16.87;;;10.27;;
19251;SDS011;9760;50.944;5.304;2022-07-09T06:23:44;21.93;;;11.77;;
19251;SDS011;9760;50.944;5.304;2022-07-09T06:26:10;17.30;;;11.17;;
19251;SDS011;9760;50.944;5.304;2022-07-09T06:28:36;18.17;;;11.40;;
19251;SDS011;9760;50.944;5.304;2022-07-09T06:31:02;17.37;;;11.63;;
19251;SDS011;9760;50.944;5.304;2022-07-09T06:33:28;18.50;;;11.13;;
19251;SDS011;9760;50.944;5.304;2022-07-09T06:35:54;22.00;;;12.03;;
19251;SDS011;9760;50.944;5.304;2022-07-09T06:38:19;21.77;;;11.73;;
19251;SDS011;9760;50.944;5.304;2022-07-09T06:40:45;20.27;;;11.93;;
19251;SDS011;9760;50.944;5.304;2022-07-09T06:43:11;28.07;;;11.13;;
19251;SDS011;9760;50.944;5.304;2022-07-09T06:45:37;27.03;;;13.73;;
19251;SDS011;9760;50.944;5.304;2022-07-09T06:48:03;23.50;;;12.60;;
19251;SDS011;9760;50.944;5.304;2022-07-09T06:50:29;23.23;;;12.50;;
19251;SDS011;9760;50.944;5.304;2022-07-09T06:52:55;21.60;;;12.23;;
19251;SDS011;9760;50.944;5.304;2022-07-09T06:55:20;25.97;;;13.50;;
19251;SDS011;9760;50.944;5.304;2022-07-09T06:57:47;23.63;;;13.23;;
19251;SDS011;9760;50.944;5.304;2022-07-09T07:00:13;34.37;;;13.17;;
19251;SDS011;9760;50.944;5.304;2022-07-09T07:02:38;25.77;;;13.00;;
19251;SDS011;9760;50.944;5.304;2022-07-09T07:05:05;22.60;;;12.93;;
19251;SDS011;9760;50.944;5.304;2022-07-09T07:07:31;25.50;;;13.93;;
19251;SDS011;9760;50.944;5.304;2022-07-09T07:09:57;26.37;;;14.63;;
19251;SDS011;9760;50.944;5.304;2022-07-09T07:12:23;25.30;;;13.10;;
19251;SDS011;9760;50.944;5.304;2022-07-09T07:14:48;25.50;;;14.40;;
19251;SDS011;9760;50.944;5.304;2022-07-09T07:17:15;19.83;;;13.27;;
19251;SDS011;9760;50.944;5.304;2022-07-09T07:19:41;23.83;;;13.07;;
19251;SDS011;9760;50.944;5.304;2022-07-09T07:22:07;24.30;;;13.57;;
19251;SDS011;9760;50.944;5.304;2022-07-09T07:24:32;31.50;;;13.93;;
19251;SDS011;9760;50.944;5.304;2022-07-09T07:26:58;23.83;;;12.60;;
19251;SDS011;9760;50.944;5.304;2022-07-09T07:29:24;23.40;;;12.80;;
19251;SDS011;9760;50.944;5.304;2022-07-09T07:31:51;22.27;;;12.10;;
19251;SDS011;9760;50.944;5.304;2022-07-09T07:34:17;25.00;;;12.53;;
19251;SDS011;9760;50.944;5.304;2022-07-09T07:36:44;21.80;;;11.73;;
19251;SDS011;9760;50.944;5.304;2022-07-09T07:39:10;20.73;;;11.07;;
19251;SDS011;9760;50.944;5.304;2022-07-09T07:41:35;21.53;;;11.90;;
19251;SDS011;9760;50.944;5.304;2022-07-09T07:44:01;20.17;;;11.13;;
19251;SDS011;9760;50.944;5.304;2022-07-09T07:46:27;24.27;;;12.13;;
19251;SDS011;9760;50.944;5.304;2022-07-09T07:48:52;22.13;;;12.20;;
19251;SDS011;9760;50.944;5.304;2022-07-09T07:51:18;17.30;;;11.03;;
19251;SDS011;9760;50.944;5.304;2022-07-09T07:53:44;24.80;;;12.80;;
19251;SDS011;9760;50.944;5.304;2022-07-09T07:56:09;19.33;;;12.50;;
19251;SDS011;9760;50.944;5.304;2022-07-09T07:58:35;29.90;;;15.17;;
19251;SDS011;9760;50.944;5.304;2022-07-09T08:01:01;22.10;;;13.73;;
19251;SDS011;9760;50.944;5.304;2022-07-09T08:03:27;24.80;;;13.60;;
19251;SDS011;9760;50.944;5.304;2022-07-09T08:05:53;23.90;;;11.97;;
19251;SDS011;9760;50.944;5.304;2022-07-09T08:08:18;20.50;;;10.50;;
19251;SDS011;9760;50.944;5.304;2022-07-09T08:10:44;16.57;;;9.07;;
19251;SDS011;9760;50.944;5.304;2022-07-09T08:13:11;17.43;;;9.13;;
19251;SDS011;9760;50.944;5.304;2022-07-09T08:15:37;15.93;;;8.13;;
19251;SDS011;9760;50.944;5.304;2022-07-09T08:18:04;15.53;;;10.03;;
19251;SDS011;9760;50.944;5.304;2022-07-09T08:20:30;14.90;;;9.83;;
19251;SDS011;9760;50.944;5.304;2022-07-09T08:22:56;21.40;;;9.87;;
19251;SDS011;9760;50.944;5.304;2022-07-09T08:25:21;17.47;;;8.73;;
19251;SDS011;9760;50.944;5.304;2022-07-09T08:27:47;17.10;;;9.67;;
19251;SDS011;9760;50.944;5.304;2022-07-09T08:30:14;30.67;;;11.53;;
19251;SDS011;9760;50.944;5.304;2022-07-09T08:32:40;16.53;;;9.70;;
19251;SDS011;9760;50.944;5.304;2022-07-09T08:35:06;18.63;;;10.67;;
19251;SDS011;9760;50.944;5.304;2022-07-09T08:37:32;15.00;;;9.27;;
19251;SDS011;9760;50.944;5.304;2022-07-09T08:39:58;17.20;;;8.23;;
19251;SDS011;9760;50.944;5.304;2022-07-09T08:42:25;20.53;;;8.93;;
19251;SDS011;9760;50.944;5.304;2022-07-09T08:44:51;16.43;;;8.20;;
19251;SDS011;9760;50.944;5.304;2022-07-09T08:47:19;14.00;;;9.07;;
19251;SDS011;9760;50.944;5.304;2022-07-09T08:49:45;16.43;;;9.83;;
19251;SDS011;9760;50.944;5.304;2022-07-09T08:52:13;21.90;;;9.37;;
19251;SDS011;9760;50.944;5.304;2022-07-09T08:54:40;17.07;;;9.17;;
19251;SDS011;9760;50.944;5.304;2022-07-09T08:57:09;17.67;;;9.80;;
19251;SDS011;9760;50.944;5.304;2022-07-09T08:59:34;13.93;;;8.13;;
19251;SDS011;9760;50.944;5.304;2022-07-09T09:02:04;17.83;;;9.20;;
19251;SDS011;9760;50.944;5.304;2022-07-09T09:04:31;15.43;;;7.93;;
19251;SDS011;9760;50.944;5.304;2022-07-09T09:06:59;13.27;;;6.83;;
19251;SDS011;9760;50.944;5.304;2022-07-09T09:09:36;16.17;;;6.30;;
19251;SDS011;9760;50.944;5.304;2022-07-09T09:12:01;15.77;;;7.10;;
19251;SDS011;9760;50.944;5.304;2022-07-09T09:14:29;21.73;;;7.10;;
19251;SDS011;9760;50.944;5.304;2022-07-09T09:17:01;12.23;;;7.07;;
19251;SDS011;9760;50.944;5.304;2022-07-09T09:19:29;12.03;;;6.60;;
19251;SDS011;9760;50.944;5.304;2022-07-09T09:21:54;12.63;;;7.03;;
19251;SDS011;9760;50.944;5.304;2022-07-09T09:24:25;14.80;;;7.20;;
19251;SDS011;9760;50.944;5.304;2022-07-09T09:26:51;15.27;;;6.10;;
19251;SDS011;9760;50.944;5.304;2022-07-09T09:29:20;10.50;;;5.60;;
19251;SDS011;9760;50.944;5.304;2022-07-09T09:31:46;13.60;;;5.37;;
19251;SDS011;9760;50.944;5.304;2022-07-09T09:34:14;8.13;;;4.57;;
19251;SDS011;9760;50.944;5.304;2022-07-09T09:36:44;8.43;;;5.20;;
19251;SDS011;9760;50.944;5.304;2022-07-09T09:39:24;17.13;;;5.53;;
19251;SDS011;9760;50.944;5.304;2022-07-09T09:44:21;10.77;;;4.53;;
19251;SDS011;9760;50.944;5.304;2022-07-09T09:46:49;12.93;;;5.90;;
19251;SDS011;9760;50.944;5.304;2022-07-09T09:49:15;14.77;;;5.27;;
19251;SDS011;9760;50.944;5.304;2022-07-09T09:54:19;11.60;;;5.63;;
19251;SDS011;9760;50.944;5.304;2022-07-09T09:56:46;10.00;;;5.70;;
19251;SDS011;9760;50.944;5.304;2022-07-09T09:59:13;15.07;;;6.30;;
19251;SDS011;9760;50.944;5.304;2022-07-09T10:01:42;11.27;;;6.03;;
19251;SDS011;9760;50.944;5.304;2022-07-09T10:04:09;13.93;;;5.20;;
19251;SDS011;9760;50.944;5.304;2022-07-09T10:06:36;12.80;;;5.50;;
19251;SDS011;9760;50.944;5.304;2022-07-09T10:09:03;14.30;;;5.57;;
19251;SDS011;9760;50.944;5.304;2022-07-09T10:11:43;11.77;;;6.17;;
19251;SDS011;9760;50.944;5.304;2022-07-09T10:14:43;16.23;;;5.57;;
19251;SDS011;9760;50.944;5.304;2022-07-09T10:17:10;10.90;;;4.70;;
19251;SDS011;9760;50.944;5.304;2022-07-09T10:19:49;7.23;;;4.47;;
19251;SDS011;9760;50.944;5.304;2022-07-09T10:22:20;12.37;;;5.00;;
19251;SDS011;9760;50.944;5.304;2022-07-09T10:24:49;9.80;;;4.07;;
19251;SDS011;9760;50.944;5.304;2022-07-09T10:27:16;11.97;;;3.80;;
19251;SDS011;9760;50.944;5.304;2022-07-09T10:29:57;6.27;;;3.60;;
19251;SDS011;9760;50.944;5.304;2022-07-09T10:32:24;13.80;;;4.07;;
19251;SDS011;9760;50.944;5.304;2022-07-09T10:34:58;7.33;;;3.57;;
19251;SDS011;9760;50.944;5.304;2022-07-09T10:37:35;9.23;;;4.03;;
19251;SDS011;9760;50.944;5.304;2022-07-09T10:42:45;15.60;;;4.20;;
19251;SDS011;9760;50.944;5.304;2022-07-09T10:45:25;6.90;;;4.00;;
19251;SDS011;9760;50.944;5.304;2022-07-09T10:47:54;14.33;;;5.23;;
19251;SDS011;9760;50.944;5.304;2022-07-09T10:50:21;10.33;;;5.00;;
19251;SDS011;9760;50.944;5.304;2022-07-09T10:52:48;18.17;;;5.50;;
19251;SDS011;9760;50.944;5.304;2022-07-09T10:55:17;12.43;;;4.67;;
19251;SDS011;9760;50.944;5.304;2022-07-09T10:57:44;9.00;;;5.73;;
19251;SDS011;9760;50.944;5.304;2022-07-09T11:00:13;10.70;;;4.30;;
19251;SDS011;9760;50.944;5.304;2022-07-09T11:02:55;10.10;;;5.17;;
19251;SDS011;9760;50.944;5.304;2022-07-09T11:05:23;13.57;;;5.90;;
19251;SDS011;9760;50.944;5.304;2022-07-09T11:08:23;11.10;;;5.73;;
19251;SDS011;9760;50.944;5.304;2022-07-09T11:10:42;14.10;;;5.20;;
19251;SDS011;9760;50.944;5.304;2022-07-09T11:13:08;11.00;;;5.33;;
19251;SDS011;9760;50.944;5.304;2022-07-09T11:15:34;15.80;;;5.80;;
19251;SDS011;9760;50.944;5.304;2022-07-09T11:18:02;10.53;;;5.10;;
19251;SDS011;9760;50.944;5.304;2022-07-09T11:20:29;12.30;;;5.10;;
19251;SDS011;9760;50.944;5.304;2022-07-09T11:22:57;15.60;;;6.37;;
19251;SDS011;9760;50.944;5.304;2022-07-09T11:25:25;11.47;;;5.50;;
19251;SDS011;9760;50.944;5.304;2022-07-09T11:27:55;10.80;;;5.67;;
19251;SDS011;9760;50.944;5.304;2022-07-09T11:30:22;13.43;;;7.07;;
19251;SDS011;9760;50.944;5.304;2022-07-09T11:32:48;9.67;;;6.00;;
19251;SDS011;9760;50.944;5.304;2022-07-09T11:35:29;15.30;;;7.37;;
19251;SDS011;9760;50.944;5.304;2022-07-09T11:37:57;17.50;;;8.30;;
19251;SDS011;9760;50.944;5.304;2022-07-09T11:40:24;14.33;;;7.80;;
19251;SDS011;9760;50.944;5.304;2022-07-09T11:42:51;14.93;;;7.60;;
19251;SDS011;9760;50.944;5.304;2022-07-09T11:45:24;15.40;;;9.40;;
19251;SDS011;9760;50.944;5.304;2022-07-09T11:48:02;17.53;;;8.70;;
19251;SDS011;9760;50.944;5.304;2022-07-09T11:50:29;15.87;;;8.93;;
19251;SDS011;9760;50.944;5.304;2022-07-09T11:52:55;21.20;;;10.87;;
19251;SDS011;9760;50.944;5.304;2022-07-09T11:55:27;25.63;;;10.87;;
19251;SDS011;9760;50.944;5.304;2022-07-09T11:57:56;24.90;;;12.20;;
19251;SDS011;9760;50.944;5.304;2022-07-09T12:02:53;18.30;;;12.03;;
19251;SDS011;9760;50.944;5.304;2022-07-09T12:05:38;16.93;;;10.30;;
19251;SDS011;9760;50.944;5.304;2022-07-09T12:08:07;14.67;;;9.20;;
19251;SDS011;9760;50.944;5.304;2022-07-09T12:10:36;18.93;;;10.20;;
19251;SDS011;9760;50.944;5.304;2022-07-09T12:13:03;19.10;;;8.53;;
19251;SDS011;9760;50.944;5.304;2022-07-09T12:15:29;14.60;;;7.90;;
19251;SDS011;9760;50.944;5.304;2022-07-09T12:17:57;12.70;;;7.87;;
19251;SDS011;9760;50.944;5.304;2022-07-09T12:20:25;12.63;;;7.33;;
19251;SDS011;9760;50.944;5.304;2022-07-09T12:22:55;13.03;;;5.83;;
19251;SDS011;9760;50.944;5.304;2022-07-09T12:25:21;10.27;;;5.73;;
19251;SDS011;9760;50.944;5.304;2022-07-09T12:27:47;14.93;;;5.50;;
19251;SDS011;9760;50.944;5.304;2022-07-09T12:30:16;10.80;;;5.27;;
19251;SDS011;9760;50.944;5.304;2022-07-09T12:32:43;11.17;;;5.27;;
19251;SDS011;9760;50.944;5.304;2022-07-09T12:35:09;13.17;;;5.60;;
19251;SDS011;9760;50.944;5.304;2022-07-09T12:37:36;9.50;;;3.57;;
19251;SDS011;9760;50.944;5.304;2022-07-09T12:40:03;6.07;;;2.80;;
19251;SDS011;9760;50.944;5.304;2022-07-09T12:42:30;5.87;;;2.80;;
19251;SDS011;9760;50.944;5.304;2022-07-09T12:44:56;6.97;;;2.40;;
19251;SDS011;9760;50.944;5.304;2022-07-09T12:47:22;2.73;;;1.90;;
19251;SDS011;9760;50.944;5.304;2022-07-09T12:49:47;6.97;;;2.20;;
19251;SDS011;9760;50.944;5.304;2022-07-09T12:52:13;4.73;;;1.70;;
19251;SDS011;9760;50.944;5.304;2022-07-09T12:54:39;5.00;;;1.60;;
19251;SDS011;9760;50.944;5.304;2022-07-09T12:57:05;8.10;;;1.43;;
19251;SDS011;9760;50.944;5.304;2022-07-09T12:59:31;11.20;;;1.70;;
19251;SDS011;9760;50.944;5.304;2022-07-09T13:01:57;2.87;;;1.20;;
19251;SDS011;9760;50.944;5.304;2022-07-09T13:04:22;0.80;;;0.80;;
19251;SDS011;9760;50.944;5.304;2022-07-09T13:06:48;3.13;;;1.00;;
19251;SDS011;9760;50.944;5.304;2022-07-09T13:09:13;2.67;;;0.90;;
19251;SDS011;9760;50.944;5.304;2022-07-09T13:11:39;2.43;;;1.00;;
19251;SDS011;9760;50.944;5.304;2022-07-09T13:14:05;0.80;;;0.80;;
19251;SDS011;9760;50.944;5.304;2022-07-09T13:16:31;4.53;;;0.90;;
19251;SDS011;9760;50.944;5.304;2022-07-09T13:18:57;2.80;;;1.10;;
19251;SDS011;9760;50.944;5.304;2022-07-09T13:21:23;1.30;;;0.80;;
19251;SDS011;9760;50.944;5.304;2022-07-09T13:23:49;2.47;;;0.80;;
19251;SDS011;9760;50.944;5.304;2022-07-09T13:26:15;2.30;;;0.80;;
19251;SDS011;9760;50.944;5.304;2022-07-09T13:28:44;4.53;;;1.07;;
19251;SDS011;9760;50.944;5.304;2022-07-09T13:31:10;2.63;;;1.17;;
19251;SDS011;9760;50.944;5.304;2022-07-09T13:33:36;7.50;;;1.33;;
19251;SDS011;9760;50.944;5.304;2022-07-09T13:36:02;2.33;;;0.87;;
19251;SDS011;9760;50.944;5.304;2022-07-09T13:38:29;3.17;;;0.90;;
19251;SDS011;9760;50.944;5.304;2022-07-09T13:40:55;3.10;;;0.97;;
19251;SDS011;9760;50.944;5.304;2022-07-09T13:43:22;15.37;;;1.40;;
19251;SDS011;9760;50.944;5.304;2022-07-09T13:45:54;3.93;;;0.83;;
19251;SDS011;9760;50.944;5.304;2022-07-09T13:48:21;5.60;;;1.37;;
19251;SDS011;9760;50.944;5.304;2022-07-09T13:50:47;1.73;;;0.93;;
19251;SDS011;9760;50.944;5.304;2022-07-09T13:53:12;3.37;;;1.10;;
19251;SDS011;9760;50.944;5.304;2022-07-09T13:55:38;4.00;;;1.10;;
19251;SDS011;9760;50.944;5.304;2022-07-09T13:58:03;5.47;;;1.07;;
19251;SDS011;9760;50.944;5.304;2022-07-09T14:00:29;1.67;;;1.07;;
19251;SDS011;9760;50.944;5.304;2022-07-09T14:02:55;2.93;;;0.90;;
19251;SDS011;9760;50.944;5.304;2022-07-09T14:05:21;2.20;;;0.80;;
19251;SDS011;9760;50.944;5.304;2022-07-09T14:07:46;5.23;;;1.10;;
19251;SDS011;9760;50.944;5.304;2022-07-09T14:10:12;3.47;;;1.27;;
19251;SDS011;9760;50.944;5.304;2022-07-09T14:12:38;2.03;;;0.90;;
19251;SDS011;9760;50.944;5.304;2022-07-09T14:15:04;3.27;;;1.03;;
19251;SDS011;9760;50.944;5.304;2022-07-09T14:17:30;1.60;;;0.90;;
19251;SDS011;9760;50.944;5.304;2022-07-09T14:19:55;1.70;;;1.00;;
19251;SDS011;9760;50.944;5.304;2022-07-09T14:22:23;1.53;;;0.90;;
19251;SDS011;9760;50.944;5.304;2022-07-09T14:24:49;1.07;;;0.77;;
19251;SDS011;9760;50.944;5.304;2022-07-09T14:27:15;1.80;;;1.00;;
19251;SDS011;9760;50.944;5.304;2022-07-09T14:29:41;2.70;;;1.03;;
19251;SDS011;9760;50.944;5.304;2022-07-09T14:32:07;1.60;;;1.00;;
19251;SDS011;9760;50.944;5.304;2022-07-09T14:34:33;1.00;;;0.70;;
19251;SDS011;9760;50.944;5.304;2022-07-09T14:36:59;3.47;;;0.90;;
19251;SDS011;9760;50.944;5.304;2022-07-09T14:39:25;2.93;;;1.03;;
19251;SDS011;9760;50.944;5.304;2022-07-09T14:41:50;1.37;;;0.80;;
19251;SDS011;9760;50.944;5.304;2022-07-09T14:44:16;2.77;;;0.90;;
19251;SDS011;9760;50.944;5.304;2022-07-09T14:46:42;2.87;;;0.70;;
19251;SDS011;9760;50.944;5.304;2022-07-09T14:49:08;1.17;;;0.90;;
19251;SDS011;9760;50.944;5.304;2022-07-09T14:51:34;2.47;;;1.00;;
19251;SDS011;9760;50.944;5.304;2022-07-09T14:54:02;5.93;;;1.80;;
19251;SDS011;9760;50.944;5.304;2022-07-09T14:56:28;3.20;;;0.70;;
19251;SDS011;9760;50.944;5.304;2022-07-09T14:58:54;2.57;;;0.83;;